SWR896B EDDM-LSZH
Flight info
| Callsign | SWR896B |
|---|---|
| Flight time | 0h 36m |
| Altitude | 22000 |
| Route | MERSI4E MERSI Y100 MOMUK Y112 RAVED L856 NEGRA |
| Aircraft | A321/M-SDE3FGHIRWY/LB1 |
Departure
| Time | 2026-05-06 09:50 |
|---|---|
| Airport | Munich Airport (EDDM) |
Arrival
| Time | 2026-05-06 10:26 |
|---|---|
| Airport | Zürich Airport (LSZH) |
| Time | Latitude | Longitude | Altitude | Speed | Heading |
|---|---|---|---|---|---|
| 2026-05-06 08:58 | 48.35257 | 11.80658 | 1475 ft | 0 kts | 353° |
| 2026-05-06 09:36 | 48.35240 | 11.80661 | 1472 ft | 4 kts | 353° |
| 2026-05-06 09:36 | 48.35213 | 11.80666 | 1479 ft | 4 kts | 353° |
| 2026-05-06 09:36 | 48.35186 | 11.80671 | 1474 ft | 4 kts | 353° |
| 2026-05-06 09:36 | 48.35165 | 11.80675 | 1482 ft | 4 kts | 332° |
| 2026-05-06 09:37 | 48.35155 | 11.80700 | 1475 ft | 4 kts | 267° |
| 2026-05-06 09:37 | 48.35157 | 11.80738 | 1475 ft | 4 kts | 263° |
| 2026-05-06 09:37 | 48.35158 | 11.80745 | 1475 ft | 0 kts | 263° |
| 2026-05-06 09:39 | 48.35152 | 11.80661 | 1483 ft | 15 kts | 263° |
| 2026-05-06 09:39 | 48.35141 | 11.80528 | 1471 ft | 4 kts | 263° |
| 2026-05-06 09:40 | 48.35134 | 11.80442 | 1483 ft | 14 kts | 263° |
| 2026-05-06 09:40 | 48.35115 | 11.80266 | 1478 ft | 10 kts | 259° |
| 2026-05-06 09:40 | 48.35098 | 11.80050 | 1473 ft | 16 kts | 263° |
| 2026-05-06 09:41 | 48.35083 | 11.79849 | 1474 ft | 21 kts | 263° |
| 2026-05-06 09:41 | 48.35067 | 11.79645 | 1485 ft | 14 kts | 263° |
| 2026-05-06 09:41 | 48.35026 | 11.79535 | 1479 ft | 12 kts | 197° |
| 2026-05-06 09:41 | 48.34945 | 11.79542 | 1483 ft | 11 kts | 174° |
| 2026-05-06 09:42 | 48.34869 | 11.79556 | 1472 ft | 11 kts | 173° |
| 2026-05-06 09:42 | 48.34802 | 11.79544 | 1480 ft | 9 kts | 217° |
| 2026-05-06 09:42 | 48.34784 | 11.79448 | 1476 ft | 14 kts | 264° |
| 2026-05-06 09:42 | 48.34766 | 11.79228 | 1475 ft | 27 kts | 263° |
| 2026-05-06 09:43 | 48.34746 | 11.78953 | 1485 ft | 26 kts | 263° |
| 2026-05-06 09:43 | 48.34724 | 11.78695 | 1472 ft | 21 kts | 262° |
| 2026-05-06 09:43 | 48.34708 | 11.78479 | 1475 ft | 20 kts | 264° |
| 2026-05-06 09:43 | 48.34693 | 11.78270 | 1479 ft | 20 kts | 262° |
| 2026-05-06 09:44 | 48.34677 | 11.78069 | 1482 ft | 19 kts | 263° |
| 2026-05-06 09:44 | 48.34661 | 11.77874 | 1485 ft | 18 kts | 263° |
| 2026-05-06 09:44 | 48.34647 | 11.77685 | 1477 ft | 18 kts | 264° |
| 2026-05-06 09:44 | 48.34634 | 11.77504 | 1480 ft | 17 kts | 263° |
| 2026-05-06 09:45 | 48.34619 | 11.77329 | 1480 ft | 16 kts | 263° |
| 2026-05-06 09:45 | 48.34606 | 11.77162 | 1481 ft | 16 kts | 263° |
| 2026-05-06 09:45 | 48.34593 | 11.77002 | 1476 ft | 15 kts | 264° |
| 2026-05-06 09:45 | 48.34582 | 11.76849 | 1482 ft | 14 kts | 263° |
| 2026-05-06 09:46 | 48.34571 | 11.76702 | 1485 ft | 14 kts | 263° |
| 2026-05-06 09:46 | 48.34560 | 11.76564 | 1485 ft | 13 kts | 263° |
| 2026-05-06 09:46 | 48.34551 | 11.76433 | 1474 ft | 12 kts | 263° |
| 2026-05-06 09:46 | 48.34541 | 11.76309 | 1485 ft | 12 kts | 263° |
| 2026-05-06 09:47 | 48.34528 | 11.76148 | 1485 ft | 19 kts | 263° |
| 2026-05-06 09:47 | 48.34509 | 11.75913 | 1475 ft | 26 kts | 263° |
| 2026-05-06 09:47 | 48.34490 | 11.75646 | 1485 ft | 18 kts | 263° |
| 2026-05-06 09:47 | 48.34476 | 11.75461 | 1485 ft | 18 kts | 263° |
| 2026-05-06 09:48 | 48.34462 | 11.75282 | 1480 ft | 17 kts | 262° |
| 2026-05-06 09:48 | 48.34375 | 11.75224 | 1482 ft | 15 kts | 174° |
| 2026-05-06 09:48 | 48.34276 | 11.75241 | 1482 ft | 14 kts | 173° |
| 2026-05-06 09:48 | 48.34182 | 11.75259 | 1483 ft | 13 kts | 174° |
| 2026-05-06 09:49 | 48.34098 | 11.75296 | 1478 ft | 12 kts | 133° |
| 2026-05-06 09:49 | 48.34093 | 11.75432 | 1481 ft | 21 kts | 83° |
| 2026-05-06 09:49 | 48.34128 | 11.75870 | 1475 ft | 80 kts | 83° |
| 2026-05-06 09:49 | 48.34184 | 11.76606 | 1486 ft | 122 kts | 84° |
| 2026-05-06 09:50 | 48.34273 | 11.77717 | 1471 ft | 159 kts | 83° |
| 2026-05-06 09:50 | 48.34398 | 11.79537 | 1753 ft | 177 kts | 84° |
| 2026-05-06 09:50 | 48.34530 | 11.81320 | 2522 ft | 170 kts | 84° |
| 2026-05-06 09:50 | 48.34666 | 11.83135 | 3018 ft | 183 kts | 84° |
| 2026-05-06 09:51 | 48.34818 | 11.85145 | 3273 ft | 204 kts | 84° |
| 2026-05-06 09:51 | 48.34987 | 11.87380 | 3462 ft | 227 kts | 83° |
| 2026-05-06 09:51 | 48.35177 | 11.89840 | 3888 ft | 242 kts | 84° |
| 2026-05-06 09:51 | 48.35372 | 11.92357 | 4737 ft | 243 kts | 84° |
| 2026-05-06 09:52 | 48.35302 | 11.94854 | 5500 ft | 245 kts | 110° |
| 2026-05-06 09:52 | 48.34411 | 11.97016 | 6270 ft | 246 kts | 136° |
| 2026-05-06 09:52 | 48.33057 | 11.98598 | 7031 ft | 248 kts | 147° |
| 2026-05-06 09:52 | 48.31646 | 12.00115 | 7809 ft | 251 kts | 146° |
| 2026-05-06 09:53 | 48.30208 | 12.01619 | 8582 ft | 253 kts | 155° |
| 2026-05-06 09:53 | 48.28555 | 12.02515 | 9281 ft | 257 kts | 172° |
| 2026-05-06 09:53 | 48.26722 | 12.02640 | 9687 ft | 270 kts | 185° |
| 2026-05-06 09:53 | 48.24831 | 12.02486 | 10337 ft | 274 kts | 188° |
| 2026-05-06 09:54 | 48.23017 | 12.01650 | 11022 ft | 275 kts | 210° |
| 2026-05-06 09:54 | 48.21578 | 11.99761 | 11733 ft | 280 kts | 232° |
| 2026-05-06 09:54 | 48.20730 | 11.97105 | 12435 ft | 286 kts | 247° |
| 2026-05-06 09:54 | 48.20055 | 11.94281 | 13169 ft | 289 kts | 247° |
| 2026-05-06 09:55 | 48.19383 | 11.91420 | 13844 ft | 293 kts | 247° |
| 2026-05-06 09:55 | 48.18706 | 11.88528 | 14473 ft | 296 kts | 247° |
| 2026-05-06 09:55 | 48.18018 | 11.85614 | 15126 ft | 298 kts | 246° |
| 2026-05-06 09:55 | 48.17321 | 11.82682 | 15764 ft | 300 kts | 246° |
| 2026-05-06 09:56 | 48.16615 | 11.79725 | 16410 ft | 302 kts | 246° |
| 2026-05-06 09:56 | 48.15904 | 11.76757 | 17039 ft | 304 kts | 246° |
| 2026-05-06 09:56 | 48.15186 | 11.73764 | 17689 ft | 307 kts | 246° |
| 2026-05-06 09:56 | 48.14461 | 11.70749 | 18298 ft | 309 kts | 246° |
| 2026-05-06 09:57 | 48.13729 | 11.67709 | 18850 ft | 311 kts | 246° |
| 2026-05-06 09:57 | 48.12990 | 11.64657 | 19434 ft | 312 kts | 246° |
| 2026-05-06 09:57 | 48.12499 | 11.62634 | 19820 ft | 313 kts | 245° |
| 2026-05-06 09:57 | 48.11755 | 11.59569 | 20409 ft | 314 kts | 245° |
| 2026-05-06 09:58 | 48.11008 | 11.56487 | 20979 ft | 317 kts | 246° |
| 2026-05-06 09:58 | 48.10252 | 11.53371 | 21474 ft | 321 kts | 246° |
| 2026-05-06 09:58 | 48.09484 | 11.50215 | 21780 ft | 323 kts | 245° |
| 2026-05-06 09:58 | 48.08699 | 11.46998 | 21832 ft | 337 kts | 246° |
| 2026-05-06 09:59 | 48.07873 | 11.43618 | 21835 ft | 354 kts | 246° |
| 2026-05-06 09:59 | 48.07015 | 11.40103 | 21839 ft | 364 kts | 246° |
| 2026-05-06 09:59 | 48.06146 | 11.36531 | 21842 ft | 367 kts | 246° |
| 2026-05-06 09:59 | 48.05273 | 11.32939 | 21840 ft | 368 kts | 246° |
| 2026-05-06 10:00 | 48.04401 | 11.29347 | 21833 ft | 368 kts | 246° |
| 2026-05-06 10:00 | 48.03525 | 11.25764 | 21836 ft | 368 kts | 245° |
| 2026-05-06 10:00 | 48.02644 | 11.22178 | 21822 ft | 368 kts | 245° |
| 2026-05-06 10:00 | 48.01763 | 11.18592 | 21826 ft | 368 kts | 245° |
| 2026-05-06 10:01 | 48.00883 | 11.15011 | 21828 ft | 368 kts | 245° |
| 2026-05-06 10:01 | 47.99999 | 11.11430 | 21827 ft | 368 kts | 245° |
| 2026-05-06 10:01 | 47.99113 | 11.07851 | 21852 ft | 368 kts | 245° |
| 2026-05-06 10:01 | 47.98249 | 11.04255 | 21844 ft | 370 kts | 249° |
| 2026-05-06 10:02 | 47.97637 | 11.00504 | 21843 ft | 372 kts | 252° |
| 2026-05-06 10:02 | 47.97061 | 10.96735 | 21842 ft | 373 kts | 252° |
| 2026-05-06 10:02 | 47.96482 | 10.92959 | 21840 ft | 373 kts | 252° |
| 2026-05-06 10:02 | 47.95906 | 10.89193 | 21839 ft | 373 kts | 252° |
| 2026-05-06 10:03 | 47.95323 | 10.85422 | 21839 ft | 373 kts | 252° |
| 2026-05-06 10:03 | 47.94737 | 10.81651 | 21842 ft | 373 kts | 252° |
| 2026-05-06 10:03 | 47.94151 | 10.77885 | 21842 ft | 373 kts | 252° |
| 2026-05-06 10:03 | 47.93562 | 10.74112 | 21840 ft | 373 kts | 252° |
| 2026-05-06 10:04 | 47.92973 | 10.70352 | 21827 ft | 372 kts | 252° |
| 2026-05-06 10:04 | 47.92383 | 10.66600 | 21822 ft | 372 kts | 252° |
| 2026-05-06 10:04 | 47.91791 | 10.62843 | 21841 ft | 372 kts | 252° |
| 2026-05-06 10:04 | 47.91200 | 10.59085 | 21826 ft | 373 kts | 252° |
| 2026-05-06 10:05 | 47.90607 | 10.55321 | 21815 ft | 373 kts | 252° |
| 2026-05-06 10:05 | 47.90013 | 10.51560 | 21803 ft | 374 kts | 252° |
| 2026-05-06 10:05 | 47.89425 | 10.47836 | 21797 ft | 374 kts | 252° |
| 2026-05-06 10:05 | 47.88827 | 10.44072 | 21802 ft | 374 kts | 252° |
| 2026-05-06 10:06 | 47.88226 | 10.40302 | 21809 ft | 375 kts | 252° |
| 2026-05-06 10:06 | 47.87622 | 10.36514 | 21807 ft | 375 kts | 252° |
| 2026-05-06 10:06 | 47.87020 | 10.32741 | 21804 ft | 375 kts | 252° |
| 2026-05-06 10:06 | 47.86414 | 10.28957 | 21834 ft | 376 kts | 252° |
| 2026-05-06 10:07 | 47.85806 | 10.25167 | 21832 ft | 376 kts | 252° |
| 2026-05-06 10:07 | 47.85200 | 10.21388 | 21830 ft | 375 kts | 252° |
| 2026-05-06 10:07 | 47.84591 | 10.17606 | 21857 ft | 375 kts | 252° |
| 2026-05-06 10:07 | 47.83979 | 10.13838 | 21827 ft | 374 kts | 252° |
| 2026-05-06 10:08 | 47.83369 | 10.10083 | 21828 ft | 373 kts | 252° |
| 2026-05-06 10:08 | 47.82758 | 10.06335 | 21818 ft | 373 kts | 252° |
| 2026-05-06 10:08 | 47.82148 | 10.02591 | 21810 ft | 373 kts | 252° |
| 2026-05-06 10:08 | 47.81535 | 9.98840 | 21809 ft | 373 kts | 252° |
| 2026-05-06 10:09 | 47.80924 | 9.95097 | 21792 ft | 373 kts | 252° |
| 2026-05-06 10:09 | 47.80312 | 9.91336 | 21806 ft | 374 kts | 252° |
| 2026-05-06 10:09 | 47.79699 | 9.87577 | 21806 ft | 374 kts | 251° |
| 2026-05-06 10:09 | 47.79084 | 9.83818 | 21792 ft | 374 kts | 251° |
| 2026-05-06 10:10 | 47.78467 | 9.80061 | 21801 ft | 375 kts | 251° |
| 2026-05-06 10:10 | 47.77843 | 9.76298 | 21791 ft | 374 kts | 251° |
| 2026-05-06 10:10 | 47.77218 | 9.72542 | 21826 ft | 375 kts | 251° |
| 2026-05-06 10:10 | 47.76590 | 9.68785 | 21818 ft | 374 kts | 250° |
| 2026-05-06 10:11 | 47.75963 | 9.65036 | 21825 ft | 374 kts | 250° |
| 2026-05-06 10:11 | 47.75335 | 9.61284 | 21830 ft | 374 kts | 250° |
| 2026-05-06 10:11 | 47.74709 | 9.57546 | 21825 ft | 373 kts | 250° |
| 2026-05-06 10:11 | 47.74079 | 9.53805 | 21835 ft | 373 kts | 250° |
| 2026-05-06 10:12 | 47.73450 | 9.50066 | 21832 ft | 373 kts | 250° |
| 2026-05-06 10:12 | 47.72817 | 9.46314 | 21799 ft | 374 kts | 250° |
| 2026-05-06 10:12 | 47.72086 | 9.42632 | 21241 ft | 368 kts | 242° |
| 2026-05-06 10:12 | 47.70939 | 9.39282 | 20476 ft | 362 kts | 236° |
| 2026-05-06 10:13 | 47.69701 | 9.36040 | 19759 ft | 359 kts | 236° |
| 2026-05-06 10:13 | 47.68475 | 9.32830 | 19112 ft | 356 kts | 237° |
| 2026-05-06 10:13 | 47.67279 | 9.29684 | 18113 ft | 346 kts | 237° |
| 2026-05-06 10:13 | 47.66127 | 9.26645 | 17515 ft | 324 kts | 237° |
| 2026-05-06 10:14 | 47.65073 | 9.23853 | 17236 ft | 299 kts | 237° |
| 2026-05-06 10:14 | 47.64062 | 9.21184 | 16863 ft | 299 kts | 238° |
| 2026-05-06 10:14 | 47.63048 | 9.18523 | 16482 ft | 300 kts | 237° |
| 2026-05-06 10:14 | 47.62025 | 9.15845 | 16099 ft | 297 kts | 237° |
| 2026-05-06 10:15 | 47.61009 | 9.13193 | 15721 ft | 296 kts | 237° |
| 2026-05-06 10:15 | 47.59997 | 9.10549 | 15348 ft | 294 kts | 237° |
| 2026-05-06 10:15 | 47.59011 | 9.07904 | 14968 ft | 294 kts | 241° |
| 2026-05-06 10:15 | 47.58348 | 9.05033 | 14594 ft | 297 kts | 254° |
| 2026-05-06 10:16 | 47.58141 | 9.01978 | 14210 ft | 301 kts | 266° |
| 2026-05-06 10:16 | 47.58404 | 8.98884 | 13815 ft | 306 kts | 279° |
| 2026-05-06 10:16 | 47.59023 | 8.95861 | 13407 ft | 307 kts | 282° |
| 2026-05-06 10:16 | 47.59655 | 8.92844 | 12976 ft | 306 kts | 282° |
| 2026-05-06 10:17 | 47.60279 | 8.89837 | 12577 ft | 305 kts | 282° |
| 2026-05-06 10:17 | 47.60899 | 8.86825 | 12164 ft | 307 kts | 282° |
| 2026-05-06 10:17 | 47.61521 | 8.83781 | 11753 ft | 310 kts | 283° |
| 2026-05-06 10:17 | 47.62148 | 8.80715 | 11339 ft | 312 kts | 284° |
| 2026-05-06 10:18 | 47.62778 | 8.77638 | 10914 ft | 312 kts | 284° |
| 2026-05-06 10:18 | 47.63408 | 8.74559 | 10487 ft | 312 kts | 284° |
| 2026-05-06 10:18 | 47.64033 | 8.71506 | 10206 ft | 304 kts | 284° |
| 2026-05-06 10:18 | 47.64638 | 8.68542 | 9910 ft | 297 kts | 284° |
| 2026-05-06 10:19 | 47.65232 | 8.65629 | 9790 ft | 295 kts | 284° |
| 2026-05-06 10:19 | 47.65826 | 8.62714 | 9500 ft | 297 kts | 284° |
| 2026-05-06 10:19 | 47.66419 | 8.59783 | 9035 ft | 295 kts | 285° |
| 2026-05-06 10:19 | 47.67007 | 8.56867 | 8509 ft | 295 kts | 285° |
| 2026-05-06 10:20 | 47.67584 | 8.54000 | 7999 ft | 286 kts | 285° |
| 2026-05-06 10:20 | 47.68148 | 8.51198 | 7205 ft | 281 kts | 285° |
| 2026-05-06 10:20 | 47.68672 | 8.48445 | 6640 ft | 274 kts | 279° |
| 2026-05-06 10:20 | 47.68740 | 8.45658 | 6112 ft | 268 kts | 261° |
| 2026-05-06 10:21 | 47.68216 | 8.43008 | 5575 ft | 269 kts | 244° |
| 2026-05-06 10:21 | 47.67159 | 8.40753 | 5238 ft | 262 kts | 228° |
| 2026-05-06 10:21 | 47.65970 | 8.38818 | 5159 ft | 245 kts | 228° |
| 2026-05-06 10:21 | 47.64894 | 8.37024 | 5056 ft | 223 kts | 229° |
| 2026-05-06 10:22 | 47.63748 | 8.35517 | 4963 ft | 222 kts | 205° |
| 2026-05-06 10:22 | 47.62239 | 8.35166 | 4851 ft | 223 kts | 170° |
| 2026-05-06 10:22 | 47.60870 | 8.36214 | 4729 ft | 227 kts | 141° |
| 2026-05-06 10:22 | 47.59695 | 8.37816 | 4513 ft | 232 kts | 138° |
| 2026-05-06 10:23 | 47.58534 | 8.39448 | 4206 ft | 226 kts | 138° |
| 2026-05-06 10:23 | 47.57400 | 8.41015 | 3906 ft | 220 kts | 138° |
| 2026-05-06 10:23 | 47.56299 | 8.42527 | 3623 ft | 212 kts | 139° |
| 2026-05-06 10:23 | 47.55251 | 8.43966 | 3344 ft | 197 kts | 139° |
| 2026-05-06 10:24 | 47.54296 | 8.45274 | 3087 ft | 182 kts | 138° |
| 2026-05-06 10:24 | 47.53404 | 8.46495 | 2842 ft | 169 kts | 138° |
| 2026-05-06 10:24 | 47.52580 | 8.47625 | 2644 ft | 156 kts | 139° |
| 2026-05-06 10:24 | 47.51798 | 8.48695 | 2426 ft | 152 kts | 139° |
| 2026-05-06 10:25 | 47.51029 | 8.49748 | 2212 ft | 150 kts | 137° |
| 2026-05-06 10:25 | 47.50271 | 8.50784 | 2011 ft | 147 kts | 137° |
| 2026-05-06 10:25 | 47.49529 | 8.51812 | 1815 ft | 146 kts | 136° |
| 2026-05-06 10:25 | 47.48782 | 8.52834 | 1617 ft | 147 kts | 138° |
| 2026-05-06 10:26 | 47.48024 | 8.53855 | 1429 ft | 147 kts | 136° |
| 2026-05-06 10:26 | 47.47337 | 8.54798 | 1385 ft | 110 kts | 136° |
| 2026-05-06 10:26 | 47.46912 | 8.55381 | 1387 ft | 54 kts | 137° |
| 2026-05-06 10:26 | 47.46729 | 8.55596 | 1405 ft | 12 kts | 154° |
| 2026-05-06 10:27 | 47.46683 | 8.55628 | 1394 ft | 7 kts | 156° |
| 2026-05-06 10:27 | 47.46645 | 8.55653 | 1398 ft | 5 kts | 155° |
| 2026-05-06 10:27 | 47.46619 | 8.55669 | 1400 ft | 3 kts | 160° |
| 2026-05-06 10:27 | 47.46587 | 8.55682 | 1399 ft | 8 kts | 166° |
| 2026-05-06 10:28 | 47.46507 | 8.55708 | 1395 ft | 13 kts | 168° |
| 2026-05-06 10:28 | 47.46429 | 8.55734 | 1398 ft | 10 kts | 164° |
| 2026-05-06 10:28 | 47.46373 | 8.55775 | 1409 ft | 7 kts | 145° |
| 2026-05-06 10:28 | 47.46344 | 8.55811 | 1404 ft | 4 kts | 138° |
| 2026-05-06 10:29 | 47.46332 | 8.55826 | 1406 ft | 1 kts | 137° |
| 2026-05-06 10:29 | 47.46324 | 8.55838 | 1409 ft | 6 kts | 136° |
| 2026-05-06 10:29 | 47.46272 | 8.55910 | 1406 ft | 14 kts | 137° |
| 2026-05-06 10:29 | 47.46231 | 8.55967 | 1410 ft | 5 kts | 138° |
| 2026-05-06 10:30 | 47.46189 | 8.55998 | 1410 ft | 12 kts | 172° |
| 2026-05-06 10:30 | 47.46100 | 8.55990 | 1407 ft | 12 kts | 186° |
| 2026-05-06 10:30 | 47.46020 | 8.55978 | 1408 ft | 11 kts | 185° |
| 2026-05-06 10:30 | 47.45959 | 8.55964 | 1406 ft | 2 kts | 195° |
| 2026-05-06 10:31 | 47.45954 | 8.55961 | 1406 ft | 0 kts | 197° |
| 2026-05-06 10:31 | 47.45950 | 8.55959 | 1409 ft | 3 kts | 198° |
| 2026-05-06 10:31 | 47.45922 | 8.55944 | 1407 ft | 4 kts | 200° |
| 2026-05-06 10:31 | 47.45909 | 8.55938 | 1407 ft | 0 kts | 200° |
| 2026-05-06 10:32 | 47.45883 | 8.55924 | 1411 ft | 9 kts | 199° |
| 2026-05-06 10:32 | 47.45841 | 8.55902 | 1411 ft | 3 kts | 199° |
| 2026-05-06 10:32 | 47.45831 | 8.55897 | 1414 ft | 0 kts | 199° |
| 2026-05-06 10:33 | 47.45827 | 8.55895 | 1413 ft | 4 kts | 199° |
| 2026-05-06 10:33 | 47.45768 | 8.55879 | 1410 ft | 8 kts | 179° |
| 2026-05-06 10:33 | 47.45717 | 8.55868 | 1410 ft | 7 kts | 188° |
| 2026-05-06 10:33 | 47.45678 | 8.55862 | 1413 ft | 5 kts | 186° |
| 2026-05-06 10:34 | 47.45651 | 8.55838 | 1413 ft | 7 kts | 234° |
| 2026-05-06 10:34 | 47.45650 | 8.55693 | 1409 ft | 19 kts | 275° |
| 2026-05-06 10:34 | 47.45664 | 8.55498 | 1407 ft | 12 kts | 276° |
| 2026-05-06 10:34 | 47.45669 | 8.55378 | 1400 ft | 11 kts | 256° |
| 2026-05-06 10:35 | 47.45608 | 8.55350 | 1404 ft | 9 kts | 162° |
| 2026-05-06 10:35 | 47.45574 | 8.55372 | 1407 ft | 0 kts | 155° |
| 2026-05-06 10:36 | 47.45561 | 8.55381 | 1403 ft | 0 kts | 155° |
| 2026-05-06 10:37 | 47.45543 | 8.55393 | 1409 ft | 7 kts | 155° |
| 2026-05-06 10:38 | 47.45501 | 8.55422 | 1405 ft | 5 kts | 155° |
| 2026-05-06 10:38 | 47.45481 | 8.55435 | 1411 ft | 2 kts | 154° |
| 2026-05-06 10:38 | 47.45442 | 8.55463 | 1410 ft | 11 kts | 155° |
| 2026-05-06 10:38 | 47.45382 | 8.55504 | 1407 ft | 7 kts | 155° |
| 2026-05-06 10:39 | 47.45349 | 8.55527 | 1406 ft | 4 kts | 154° |
| 2026-05-06 10:39 | 47.45302 | 8.55558 | 1411 ft | 12 kts | 158° |
| 2026-05-06 10:39 | 47.45222 | 8.55591 | 1408 ft | 11 kts | 161° |
| 2026-05-06 10:39 | 47.45154 | 8.55633 | 1407 ft | 9 kts | 156° |
| 2026-05-06 10:40 | 47.45102 | 8.55670 | 1410 ft | 7 kts | 155° |
| 2026-05-06 10:40 | 47.45063 | 8.55697 | 1407 ft | 5 kts | 155° |
| 2026-05-06 10:40 | 47.45043 | 8.55711 | 1407 ft | 0 kts | 155° |
| 2026-05-06 10:44 | 47.45042 | 8.55711 | 1412 ft | 1 kts | 155° |
| 2026-05-06 10:44 | 47.45008 | 8.55735 | 1411 ft | 7 kts | 154° |
| 2026-05-06 10:44 | 47.44958 | 8.55811 | 1402 ft | 13 kts | 113° |
| 2026-05-06 10:45 | 47.44933 | 8.55928 | 1409 ft | 11 kts | 132° |
| 2026-05-06 10:45 | 47.44868 | 8.55984 | 1407 ft | 11 kts | 154° |
| 2026-05-06 10:46 | 47.44717 | 8.56089 | 1406 ft | 9 kts | 155° |
| 2026-05-06 10:46 | 47.44631 | 8.56148 | 1401 ft | 17 kts | 154° |
| 2026-05-06 10:46 | 47.44529 | 8.56218 | 1404 ft | 14 kts | 150° |
| 2026-05-06 10:46 | 47.44515 | 8.56327 | 1405 ft | 10 kts | 68° |
| 2026-05-06 10:47 | 47.44543 | 8.56415 | 1405 ft | 9 kts | 64° |
| 2026-05-06 10:47 | 47.44563 | 8.56483 | 1406 ft | 6 kts | 65° |
| 2026-05-06 10:47 | 47.44581 | 8.56511 | 1405 ft | 2 kts | 24° |
| 2026-05-06 10:47 | 47.44601 | 8.56506 | 1403 ft | 3 kts | 338° |
| 2026-05-06 10:48 | 47.44620 | 8.56495 | 1401 ft | 3 kts | 335° |
| 2026-05-06 10:48 | 47.44637 | 8.56483 | 1404 ft | 3 kts | 335° |
| 2026-05-06 10:48 | 47.44651 | 8.56474 | 1402 ft | 0 kts | 335° |